sensor_id;sensor_type;location;lat;lon;timestamp;P1;P2;P0
60816;PMS5003;51921;51.518;-3.188;2024-02-15T00:00:23;8;7;
60816;PMS5003;51921;51.518;-3.188;2024-02-15T00:02:48;5;4;
60816;PMS5003;51921;51.518;-3.188;2024-02-15T00:05:14;7;7;
60816;PMS5003;51921;51.518;-3.188;2024-02-15T00:07:39;7;7;
60816;PMS5003;51921;51.518;-3.188;2024-02-15T00:10:05;6;6;
60816;PMS5003;51921;51.518;-3.188;2024-02-15T00:12:30;8;7;
60816;PMS5003;51921;51.518;-3.188;2024-02-15T00:14:55;5;5;
60816;PMS5003;51921;51.518;-3.188;2024-02-15T00:17:21;7;7;
60816;PMS5003;51921;51.518;-3.188;2024-02-15T00:19:46;7;6;
60816;PMS5003;51921;51.518;-3.188;2024-02-15T00:22:11;6;6;
60816;PMS5003;51921;51.518;-3.188;2024-02-15T00:24:37;6;5;
60816;PMS5003;51921;51.518;-3.188;2024-02-15T00:27:02;6;6;
60816;PMS5003;51921;51.518;-3.188;2024-02-15T00:29:28;7;7;
60816;PMS5003;51921;51.518;-3.188;2024-02-15T00:31:53;7;6;
60816;PMS5003;51921;51.518;-3.188;2024-02-15T00:34:19;5;5;
60816;PMS5003;51921;51.518;-3.188;2024-02-15T00:36:44;3;3;
60816;PMS5003;51921;51.518;-3.188;2024-02-15T00:39:09;6;5;
60816;PMS5003;51921;51.518;-3.188;2024-02-15T00:41:35;3;3;
60816;PMS5003;51921;51.518;-3.188;2024-02-15T00:44:00;5;5;
60816;PMS5003;51921;51.518;-3.188;2024-02-15T00:46:26;5;5;
60816;PMS5003;51921;51.518;-3.188;2024-02-15T00:48:51;5;5;
60816;PMS5003;51921;51.518;-3.188;2024-02-15T00:51:16;6;5;
60816;PMS5003;51921;51.518;-3.188;2024-02-15T00:53:42;3;3;
60816;PMS5003;51921;51.518;-3.188;2024-02-15T00:56:07;4;4;
60816;PMS5003;51921;51.518;-3.188;2024-02-15T00:58:33;4;4;
60816;PMS5003;51921;51.518;-3.188;2024-02-15T01:00:58;4;4;
60816;PMS5003;51921;51.518;-3.188;2024-02-15T01:03:23;3;3;
60816;PMS5003;51921;51.518;-3.188;2024-02-15T01:05:49;5;5;
60816;PMS5003;51921;51.518;-3.188;2024-02-15T01:08:14;5;5;
60816;PMS5003;51921;51.518;-3.188;2024-02-15T01:10:40;4;4;
60816;PMS5003;51921;51.518;-3.188;2024-02-15T01:13:05;5;5;
60816;PMS5003;51921;51.518;-3.188;2024-02-15T01:15:30;5;4;
60816;PMS5003;51921;51.518;-3.188;2024-02-15T01:17:56;4;4;
60816;PMS5003;51921;51.518;-3.188;2024-02-15T01:20:22;5;5;
60816;PMS5003;51921;51.518;-3.188;2024-02-15T01:22:47;8;7;
60816;PMS5003;51921;51.518;-3.188;2024-02-15T01:25:12;7;7;
60816;PMS5003;51921;51.518;-3.188;2024-02-15T01:27:38;9;9;
60816;PMS5003;51921;51.518;-3.188;2024-02-15T01:30:03;8;8;
60816;PMS5003;51921;51.518;-3.188;2024-02-15T01:32:28;9;9;
60816;PMS5003;51921;51.518;-3.188;2024-02-15T01:34:53;9;8;
60816;PMS5003;51921;51.518;-3.188;2024-02-15T01:37:19;11;10;
60816;PMS5003;51921;51.518;-3.188;2024-02-15T01:39:44;11;11;
60816;PMS5003;51921;51.518;-3.188;2024-02-15T01:42:10;13;11;
60816;PMS5003;51921;51.518;-3.188;2024-02-15T01:44:35;12;12;
60816;PMS5003;51921;51.518;-3.188;2024-02-15T01:47:01;14;12;
60816;PMS5003;51921;51.518;-3.188;2024-02-15T01:49:26;14;14;
60816;PMS5003;51921;51.518;-3.188;2024-02-15T01:51:51;13;12;
60816;PMS5003;51921;51.518;-3.188;2024-02-15T01:54:16;12;12;
60816;PMS5003;51921;51.518;-3.188;2024-02-15T01:56:42;9;9;
60816;PMS5003;51921;51.518;-3.188;2024-02-15T01:59:07;11;11;
60816;PMS5003;51921;51.518;-3.188;2024-02-15T02:01:33;12;12;
60816;PMS5003;51921;51.518;-3.188;2024-02-15T02:03:58;8;8;
60816;PMS5003;51921;51.518;-3.188;2024-02-15T02:06:23;12;11;
60816;PMS5003;51921;51.518;-3.188;2024-02-15T02:08:49;11;11;
60816;PMS5003;51921;51.518;-3.188;2024-02-15T02:11:14;8;8;
60816;PMS5003;51921;51.518;-3.188;2024-02-15T02:13:40;9;9;
60816;PMS5003;51921;51.518;-3.188;2024-02-15T02:18:31;7;7;
60816;PMS5003;51921;51.518;-3.188;2024-02-15T02:20:56;10;10;
60816;PMS5003;51921;51.518;-3.188;2024-02-15T02:23:21;7;7;
60816;PMS5003;51921;51.518;-3.188;2024-02-15T02:25:46;7;7;
60816;PMS5003;51921;51.518;-3.188;2024-02-15T02:28:12;7;7;
60816;PMS5003;51921;51.518;-3.188;2024-02-15T02:30:37;6;6;
60816;PMS5003;51921;51.518;-3.188;2024-02-15T02:33:03;8;7;
60816;PMS5003;51921;51.518;-3.188;2024-02-15T02:35:28;4;4;
60816;PMS5003;51921;51.518;-3.188;2024-02-15T02:37:53;5;5;
60816;PMS5003;51921;51.518;-3.188;2024-02-15T02:40:19;4;4;
60816;PMS5003;51921;51.518;-3.188;2024-02-15T02:42:47;4;4;
60816;PMS5003;51921;51.518;-3.188;2024-02-15T02:45:10;4;4;
60816;PMS5003;51921;51.518;-3.188;2024-02-15T02:47:35;3;3;
60816;PMS5003;51921;51.518;-3.188;2024-02-15T02:50:01;3;3;
60816;PMS5003;51921;51.518;-3.188;2024-02-15T02:52:26;4;4;
60816;PMS5003;51921;51.518;-3.188;2024-02-15T02:54:51;5;4;
60816;PMS5003;51921;51.518;-3.188;2024-02-15T02:57:17;3;3;
60816;PMS5003;51921;51.518;-3.188;2024-02-15T02:59:42;3;3;
60816;PMS5003;51921;51.518;-3.188;2024-02-15T03:02:07;4;3;
60816;PMS5003;51921;51.518;-3.188;2024-02-15T03:04:33;3;3;
60816;PMS5003;51921;51.518;-3.188;2024-02-15T03:06:58;4;4;
60816;PMS5003;51921;51.518;-3.188;2024-02-15T03:09:23;5;5;
60816;PMS5003;51921;51.518;-3.188;2024-02-15T03:11:49;4;4;
60816;PMS5003;51921;51.518;-3.188;2024-02-15T03:14:14;2;2;
60816;PMS5003;51921;51.518;-3.188;2024-02-15T03:16:40;2;2;
60816;PMS5003;51921;51.518;-3.188;2024-02-15T03:19:05;4;4;
60816;PMS5003;51921;51.518;-3.188;2024-02-15T03:21:30;3;2;
60816;PMS5003;51921;51.518;-3.188;2024-02-15T03:23:56;2;2;
60816;PMS5003;51921;51.518;-3.188;2024-02-15T03:26:28;2;2;
60816;PMS5003;51921;51.518;-3.188;2024-02-15T03:28:47;3;3;
60816;PMS5003;51921;51.518;-3.188;2024-02-15T03:31:13;2;2;
60816;PMS5003;51921;51.518;-3.188;2024-02-15T03:33:37;3;3;
60816;PMS5003;51921;51.518;-3.188;2024-02-15T03:36:03;2;2;
60816;PMS5003;51921;51.518;-3.188;2024-02-15T03:38:28;1;1;
60816;PMS5003;51921;51.518;-3.188;2024-02-15T03:40:53;2;2;
60816;PMS5003;51921;51.518;-3.188;2024-02-15T03:43:19;3;2;
60816;PMS5003;51921;51.518;-3.188;2024-02-15T03:45:44;2;2;
60816;PMS5003;51921;51.518;-3.188;2024-02-15T03:48:09;2;2;
60816;PMS5003;51921;51.518;-3.188;2024-02-15T03:50:35;2;2;
60816;PMS5003;51921;51.518;-3.188;2024-02-15T03:53:00;2;2;
60816;PMS5003;51921;51.518;-3.188;2024-02-15T03:55:25;2;2;
60816;PMS5003;51921;51.518;-3.188;2024-02-15T03:57:51;3;3;
60816;PMS5003;51921;51.518;-3.188;2024-02-15T04:00:16;1;1;
60816;PMS5003;51921;51.518;-3.188;2024-02-15T04:02:41;3;3;
60816;PMS5003;51921;51.518;-3.188;2024-02-15T04:05:07;2;2;
60816;PMS5003;51921;51.518;-3.188;2024-02-15T04:07:32;3;3;
60816;PMS5003;51921;51.518;-3.188;2024-02-15T04:09:58;3;3;
60816;PMS5003;51921;51.518;-3.188;2024-02-15T04:12:23;3;2;
60816;PMS5003;51921;51.518;-3.188;2024-02-15T04:14:48;4;4;
60816;PMS5003;51921;51.518;-3.188;2024-02-15T04:17:14;2;2;
60816;PMS5003;51921;51.518;-3.188;2024-02-15T04:19:39;3;3;
60816;PMS5003;51921;51.518;-3.188;2024-02-15T04:22:04;4;4;
60816;PMS5003;51921;51.518;-3.188;2024-02-15T04:24:30;3;3;
60816;PMS5003;51921;51.518;-3.188;2024-02-15T04:26:55;4;3;
60816;PMS5003;51921;51.518;-3.188;2024-02-15T04:29:21;3;3;
60816;PMS5003;51921;51.518;-3.188;2024-02-15T04:31:46;4;4;
60816;PMS5003;51921;51.518;-3.188;2024-02-15T04:34:11;4;4;
60816;PMS5003;51921;51.518;-3.188;2024-02-15T04:36:37;4;4;
60816;PMS5003;51921;51.518;-3.188;2024-02-15T04:39:02;4;3;
60816;PMS5003;51921;51.518;-3.188;2024-02-15T04:41:28;4;4;
60816;PMS5003;51921;51.518;-3.188;2024-02-15T04:43:53;4;4;
60816;PMS5003;51921;51.518;-3.188;2024-02-15T04:46:19;4;4;
60816;PMS5003;51921;51.518;-3.188;2024-02-15T04:48:44;5;5;
60816;PMS5003;51921;51.518;-3.188;2024-02-15T04:51:10;5;4;
60816;PMS5003;51921;51.518;-3.188;2024-02-15T04:53:35;4;4;
60816;PMS5003;51921;51.518;-3.188;2024-02-15T04:56:00;3;3;
60816;PMS5003;51921;51.518;-3.188;2024-02-15T04:58:25;5;5;
60816;PMS5003;51921;51.518;-3.188;2024-02-15T05:00:51;4;4;
60816;PMS5003;51921;51.518;-3.188;2024-02-15T05:03:16;4;4;
60816;PMS5003;51921;51.518;-3.188;2024-02-15T05:08:07;3;3;
60816;PMS5003;51921;51.518;-3.188;2024-02-15T05:10:32;3;3;
60816;PMS5003;51921;51.518;-3.188;2024-02-15T05:12:58;4;4;
60816;PMS5003;51921;51.518;-3.188;2024-02-15T05:15:23;3;3;
60816;PMS5003;51921;51.518;-3.188;2024-02-15T05:17:49;4;4;
60816;PMS5003;51921;51.518;-3.188;2024-02-15T05:20:14;3;3;
60816;PMS5003;51921;51.518;-3.188;2024-02-15T05:22:40;4;4;
60816;PMS5003;51921;51.518;-3.188;2024-02-15T05:25:06;4;4;
60816;PMS5003;51921;51.518;-3.188;2024-02-15T05:27:30;5;5;
60816;PMS5003;51921;51.518;-3.188;2024-02-15T05:29:56;4;4;
60816;PMS5003;51921;51.518;-3.188;2024-02-15T05:32:21;5;5;
60816;PMS5003;51921;51.518;-3.188;2024-02-15T05:34:47;5;5;
60816;PMS5003;51921;51.518;-3.188;2024-02-15T05:37:12;3;3;
60816;PMS5003;51921;51.518;-3.188;2024-02-15T05:39:38;7;7;
60816;PMS5003;51921;51.518;-3.188;2024-02-15T05:42:03;6;5;
60816;PMS5003;51921;51.518;-3.188;2024-02-15T05:44:28;7;6;
60816;PMS5003;51921;51.518;-3.188;2024-02-15T05:46:54;4;4;
60816;PMS5003;51921;51.518;-3.188;2024-02-15T05:49:19;7;6;
60816;PMS5003;51921;51.518;-3.188;2024-02-15T05:51:45;8;8;
60816;PMS5003;51921;51.518;-3.188;2024-02-15T05:54:11;6;5;
60816;PMS5003;51921;51.518;-3.188;2024-02-15T05:59:02;7;6;
60816;PMS5003;51921;51.518;-3.188;2024-02-15T06:01:27;5;5;
60816;PMS5003;51921;51.518;-3.188;2024-02-15T06:03:53;3;3;
60816;PMS5003;51921;51.518;-3.188;2024-02-15T06:06:18;5;5;
60816;PMS5003;51921;51.518;-3.188;2024-02-15T06:08:45;3;2;
60816;PMS5003;51921;51.518;-3.188;2024-02-15T06:11:09;6;5;
60816;PMS5003;51921;51.518;-3.188;2024-02-15T06:13:34;5;4;
60816;PMS5003;51921;51.518;-3.188;2024-02-15T06:16:00;3;3;
60816;PMS5003;51921;51.518;-3.188;2024-02-15T06:18:26;5;5;
60816;PMS5003;51921;51.518;-3.188;2024-02-15T06:20:51;5;3;
60816;PMS5003;51921;51.518;-3.188;2024-02-15T06:23:16;5;5;
60816;PMS5003;51921;51.518;-3.188;2024-02-15T06:25:41;7;7;
60816;PMS5003;51921;51.518;-3.188;2024-02-15T06:28:07;8;8;
60816;PMS5003;51921;51.518;-3.188;2024-02-15T06:30:33;10;8;
60816;PMS5003;51921;51.518;-3.188;2024-02-15T06:32:58;6;5;
60816;PMS5003;51921;51.518;-3.188;2024-02-15T06:35:23;6;4;
60816;PMS5003;51921;51.518;-3.188;2024-02-15T06:37:49;8;8;
60816;PMS5003;51921;51.518;-3.188;2024-02-15T06:40:14;6;6;
60816;PMS5003;51921;51.518;-3.188;2024-02-15T06:42:39;10;9;
60816;PMS5003;51921;51.518;-3.188;2024-02-15T06:45:05;8;7;
60816;PMS5003;51921;51.518;-3.188;2024-02-15T06:47:30;7;6;
60816;PMS5003;51921;51.518;-3.188;2024-02-15T06:52:22;11;11;
60816;PMS5003;51921;51.518;-3.188;2024-02-15T06:54:47;8;8;
60816;PMS5003;51921;51.518;-3.188;2024-02-15T06:57:12;9;9;
60816;PMS5003;51921;51.518;-3.188;2024-02-15T06:59:38;13;12;
60816;PMS5003;51921;51.518;-3.188;2024-02-15T07:02:03;10;10;
60816;PMS5003;51921;51.518;-3.188;2024-02-15T07:04:29;15;13;
60816;PMS5003;51921;51.518;-3.188;2024-02-15T07:06:54;14;12;
60816;PMS5003;51921;51.518;-3.188;2024-02-15T07:09:19;13;13;
60816;PMS5003;51921;51.518;-3.188;2024-02-15T07:11:45;19;18;
60816;PMS5003;51921;51.518;-3.188;2024-02-15T07:14:11;18;16;
60816;PMS5003;51921;51.518;-3.188;2024-02-15T07:16:36;23;22;
60816;PMS5003;51921;51.518;-3.188;2024-02-15T07:19:01;21;21;
60816;PMS5003;51921;51.518;-3.188;2024-02-15T07:21:27;18;18;
60816;PMS5003;51921;51.518;-3.188;2024-02-15T07:23:53;22;21;
60816;PMS5003;51921;51.518;-3.188;2024-02-15T07:31:09;18;18;
60816;PMS5003;51921;51.518;-3.188;2024-02-15T07:33:34;17;17;
60816;PMS5003;51921;51.518;-3.188;2024-02-15T07:36:00;17;16;
60816;PMS5003;51921;51.518;-3.188;2024-02-15T07:38:25;19;19;
60816;PMS5003;51921;51.518;-3.188;2024-02-15T07:40:50;18;17;
60816;PMS5003;51921;51.518;-3.188;2024-02-15T07:43:15;18;17;
60816;PMS5003;51921;51.518;-3.188;2024-02-15T07:45:41;16;15;
60816;PMS5003;51921;51.518;-3.188;2024-02-15T07:48:07;16;14;
60816;PMS5003;51921;51.518;-3.188;2024-02-15T07:50:32;13;12;
60816;PMS5003;51921;51.518;-3.188;2024-02-15T07:52:57;12;11;
60816;PMS5003;51921;51.518;-3.188;2024-02-15T07:55:22;14;11;
60816;PMS5003;51921;51.518;-3.188;2024-02-15T08:00:14;15;14;
60816;PMS5003;51921;51.518;-3.188;2024-02-15T08:02:39;14;14;
60816;PMS5003;51921;51.518;-3.188;2024-02-15T08:05:04;9;9;
60816;PMS5003;51921;51.518;-3.188;2024-02-15T08:07:29;10;10;
60816;PMS5003;51921;51.518;-3.188;2024-02-15T08:09:55;8;8;
60816;PMS5003;51921;51.518;-3.188;2024-02-15T08:12:21;10;7;
60816;PMS5003;51921;51.518;-3.188;2024-02-15T08:17:11;7;7;
60816;PMS5003;51921;51.518;-3.188;2024-02-15T08:19:37;8;7;
60816;PMS5003;51921;51.518;-3.188;2024-02-15T08:22:03;5;5;
60816;PMS5003;51921;51.518;-3.188;2024-02-15T08:24:28;6;6;
60816;PMS5003;51921;51.518;-3.188;2024-02-15T08:27:02;5;5;
60816;PMS5003;51921;51.518;-3.188;2024-02-15T08:29:18;8;7;
60816;PMS5003;51921;51.518;-3.188;2024-02-15T08:31:44;10;8;
60816;PMS5003;51921;51.518;-3.188;2024-02-15T08:34:09;8;7;
60816;PMS5003;51921;51.518;-3.188;2024-02-15T08:36:40;6;5;
60816;PMS5003;51921;51.518;-3.188;2024-02-15T08:39:00;9;6;
60816;PMS5003;51921;51.518;-3.188;2024-02-15T08:41:25;7;7;
60816;PMS5003;51921;51.518;-3.188;2024-02-15T08:43:51;7;6;
60816;PMS5003;51921;51.518;-3.188;2024-02-15T08:46:16;5;5;
60816;PMS5003;51921;51.518;-3.188;2024-02-15T08:48:42;6;5;
60816;PMS5003;51921;51.518;-3.188;2024-02-15T08:51:07;4;4;
60816;PMS5003;51921;51.518;-3.188;2024-02-15T08:53:33;5;4;
60816;PMS5003;51921;51.518;-3.188;2024-02-15T08:55:58;7;6;
60816;PMS5003;51921;51.518;-3.188;2024-02-15T08:58:23;5;4;
60816;PMS5003;51921;51.518;-3.188;2024-02-15T09:00:49;6;5;
60816;PMS5003;51921;51.518;-3.188;2024-02-15T09:03:14;4;4;
60816;PMS5003;51921;51.518;-3.188;2024-02-15T09:05:40;5;4;
60816;PMS5003;51921;51.518;-3.188;2024-02-15T09:08:05;6;4;
60816;PMS5003;51921;51.518;-3.188;2024-02-15T09:10:30;4;4;
60816;PMS5003;51921;51.518;-3.188;2024-02-15T09:12:56;4;4;
60816;PMS5003;51921;51.518;-3.188;2024-02-15T09:15:21;5;5;
60816;PMS5003;51921;51.518;-3.188;2024-02-15T09:17:47;5;4;
60816;PMS5003;51921;51.518;-3.188;2024-02-15T09:20:13;10;8;
60816;PMS5003;51921;51.518;-3.188;2024-02-15T09:22:37;4;3;
60816;PMS5003;51921;51.518;-3.188;2024-02-15T09:25:03;8;6;
60816;PMS5003;51921;51.518;-3.188;2024-02-15T09:27:28;9;7;
60816;PMS5003;51921;51.518;-3.188;2024-02-15T09:29:55;7;7;
60816;PMS5003;51921;51.518;-3.188;2024-02-15T09:32:19;8;7;
60816;PMS5003;51921;51.518;-3.188;2024-02-15T09:34:44;7;7;
60816;PMS5003;51921;51.518;-3.188;2024-02-15T09:37:10;6;6;
60816;PMS5003;51921;51.518;-3.188;2024-02-15T09:39:36;6;5;
60816;PMS5003;51921;51.518;-3.188;2024-02-15T09:42:00;6;5;
60816;PMS5003;51921;51.518;-3.188;2024-02-15T09:44:26;5;5;
60816;PMS5003;51921;51.518;-3.188;2024-02-15T09:46:52;8;8;
60816;PMS5003;51921;51.518;-3.188;2024-02-15T09:49:17;7;6;
60816;PMS5003;51921;51.518;-3.188;2024-02-15T09:51:42;6;6;
60816;PMS5003;51921;51.518;-3.188;2024-02-15T09:54:07;9;8;
60816;PMS5003;51921;51.518;-3.188;2024-02-15T09:56:32;8;7;
60816;PMS5003;51921;51.518;-3.188;2024-02-15T09:58:59;8;8;
60816;PMS5003;51921;51.518;-3.188;2024-02-15T10:01:23;8;7;
60816;PMS5003;51921;51.518;-3.188;2024-02-15T10:03:49;10;8;
60816;PMS5003;51921;51.518;-3.188;2024-02-15T10:06:14;8;8;
60816;PMS5003;51921;51.518;-3.188;2024-02-15T10:08:40;10;9;
60816;PMS5003;51921;51.518;-3.188;2024-02-15T10:11:05;9;7;
60816;PMS5003;51921;51.518;-3.188;2024-02-15T10:13:30;10;9;
60816;PMS5003;51921;51.518;-3.188;2024-02-15T10:15:56;9;9;
60816;PMS5003;51921;51.518;-3.188;2024-02-15T10:18:21;8;7;
60816;PMS5003;51921;51.518;-3.188;2024-02-15T10:20:46;7;7;
60816;PMS5003;51921;51.518;-3.188;2024-02-15T10:23:12;10;9;
60816;PMS5003;51921;51.518;-3.188;2024-02-15T10:25:38;10;10;
60816;PMS5003;51921;51.518;-3.188;2024-02-15T10:28:03;8;8;
60816;PMS5003;51921;51.518;-3.188;2024-02-15T10:30:29;10;9;
60816;PMS5003;51921;51.518;-3.188;2024-02-15T10:32:54;8;8;
60816;PMS5003;51921;51.518;-3.188;2024-02-15T10:35:19;9;8;
60816;PMS5003;51921;51.518;-3.188;2024-02-15T10:37:44;8;8;
60816;PMS5003;51921;51.518;-3.188;2024-02-15T10:40:17;9;8;
60816;PMS5003;51921;51.518;-3.188;2024-02-15T10:42:35;8;7;
60816;PMS5003;51921;51.518;-3.188;2024-02-15T10:45:00;8;7;
60816;PMS5003;51921;51.518;-3.188;2024-02-15T10:47:26;6;6;
60816;PMS5003;51921;51.518;-3.188;2024-02-15T10:49:51;9;8;
60816;PMS5003;51921;51.518;-3.188;2024-02-15T10:52:17;9;7;
60816;PMS5003;51921;51.518;-3.188;2024-02-15T10:57:08;8;8;
60816;PMS5003;51921;51.518;-3.188;2024-02-15T10:59:34;10;8;
60816;PMS5003;51921;51.518;-3.188;2024-02-15T11:01:58;8;8;
60816;PMS5003;51921;51.518;-3.188;2024-02-15T11:04:23;10;9;
60816;PMS5003;51921;51.518;-3.188;2024-02-15T11:06:49;6;6;
60816;PMS5003;51921;51.518;-3.188;2024-02-15T11:09:14;7;7;
60816;PMS5003;51921;51.518;-3.188;2024-02-15T11:11:40;10;8;
60816;PMS5003;51921;51.518;-3.188;2024-02-15T11:18:56;10;9;
60816;PMS5003;51921;51.518;-3.188;2024-02-15T11:23:46;10;8;
60816;PMS5003;51921;51.518;-3.188;2024-02-15T11:28:38;8;8;
60816;PMS5003;51921;51.518;-3.188;2024-02-15T11:31:03;9;9;
60816;PMS5003;51921;51.518;-3.188;2024-02-15T11:33:28;8;8;
60816;PMS5003;51921;51.518;-3.188;2024-02-15T11:43:44;10;10;
60816;PMS5003;51921;51.518;-3.188;2024-02-15T11:45:35;8;8;
60816;PMS5003;51921;51.518;-3.188;2024-02-15T11:48:00;7;7;
60816;PMS5003;51921;51.518;-3.188;2024-02-15T11:50:27;7;7;
60816;PMS5003;51921;51.518;-3.188;2024-02-15T11:52:51;9;8;
60816;PMS5003;51921;51.518;-3.188;2024-02-15T11:55:18;9;9;
60816;PMS5003;51921;51.518;-3.188;2024-02-15T11:57:41;8;8;
60816;PMS5003;51921;51.518;-3.188;2024-02-15T12:00:07;10;10;
60816;PMS5003;51921;51.518;-3.188;2024-02-15T12:02:32;7;7;
60816;PMS5003;51921;51.518;-3.188;2024-02-15T12:04:58;11;9;
60816;PMS5003;51921;51.518;-3.188;2024-02-15T12:07:23;9;9;
60816;PMS5003;51921;51.518;-3.188;2024-02-15T12:09:48;9;8;
60816;PMS5003;51921;51.518;-3.188;2024-02-15T12:12:14;9;9;
60816;PMS5003;51921;51.518;-3.188;2024-02-15T12:14:39;10;10;
60816;PMS5003;51921;51.518;-3.188;2024-02-15T12:17:05;9;8;
60816;PMS5003;51921;51.518;-3.188;2024-02-15T12:19:30;8;8;
60816;PMS5003;51921;51.518;-3.188;2024-02-15T12:21:55;11;11;
60816;PMS5003;51921;51.518;-3.188;2024-02-15T12:24:20;10;10;
60816;PMS5003;51921;51.518;-3.188;2024-02-15T12:26:45;11;10;
60816;PMS5003;51921;51.518;-3.188;2024-02-15T12:29:15;8;8;
60816;PMS5003;51921;51.518;-3.188;2024-02-15T12:31:37;12;12;
60816;PMS5003;51921;51.518;-3.188;2024-02-15T12:34:02;9;9;
60816;PMS5003;51921;51.518;-3.188;2024-02-15T12:36:28;8;7;
60816;PMS5003;51921;51.518;-3.188;2024-02-15T12:41:19;8;8;
60816;PMS5003;51921;51.518;-3.188;2024-02-15T12:43:44;7;7;
60816;PMS5003;51921;51.518;-3.188;2024-02-15T12:46:09;6;6;
60816;PMS5003;51921;51.518;-3.188;2024-02-15T12:48:34;8;8;
60816;PMS5003;51921;51.518;-3.188;2024-02-15T12:51:00;7;7;
60816;PMS5003;51921;51.518;-3.188;2024-02-15T12:53:25;8;8;
60816;PMS5003;51921;51.518;-3.188;2024-02-15T12:55:54;11;9;
60816;PMS5003;51921;51.518;-3.188;2024-02-15T12:58:16;9;8;
60816;PMS5003;51921;51.518;-3.188;2024-02-15T13:00:41;10;9;
60816;PMS5003;51921;51.518;-3.188;2024-02-15T13:03:07;10;10;
60816;PMS5003;51921;51.518;-3.188;2024-02-15T13:05:32;11;10;
60816;PMS5003;51921;51.518;-3.188;2024-02-15T13:07:57;11;11;
60816;PMS5003;51921;51.518;-3.188;2024-02-15T13:10:22;9;9;
60816;PMS5003;51921;51.518;-3.188;2024-02-15T13:15:13;11;11;
60816;PMS5003;51921;51.518;-3.188;2024-02-15T13:17:38;8;8;
60816;PMS5003;51921;51.518;-3.188;2024-02-15T13:20:03;10;9;
60816;PMS5003;51921;51.518;-3.188;2024-02-15T13:22:28;11;10;
60816;PMS5003;51921;51.518;-3.188;2024-02-15T13:24:53;9;9;
60816;PMS5003;51921;51.518;-3.188;2024-02-15T13:27:19;13;12;
60816;PMS5003;51921;51.518;-3.188;2024-02-15T13:29:44;12;11;
60816;PMS5003;51921;51.518;-3.188;2024-02-15T13:32:11;13;11;
60816;PMS5003;51921;51.518;-3.188;2024-02-15T13:34:36;11;9;
60816;PMS5003;51921;51.518;-3.188;2024-02-15T13:37:01;10;9;
60816;PMS5003;51921;51.518;-3.188;2024-02-15T13:39:27;8;8;
60816;PMS5003;51921;51.518;-3.188;2024-02-15T13:41:52;8;8;
60816;PMS5003;51921;51.518;-3.188;2024-02-15T13:44:17;10;10;
60816;PMS5003;51921;51.518;-3.188;2024-02-15T13:46:42;10;10;
60816;PMS5003;51921;51.518;-3.188;2024-02-15T13:49:08;11;11;
60816;PMS5003;51921;51.518;-3.188;2024-02-15T13:51:33;11;10;
60816;PMS5003;51921;51.518;-3.188;2024-02-15T13:53:58;10;10;
60816;PMS5003;51921;51.518;-3.188;2024-02-15T13:56:24;14;12;
60816;PMS5003;51921;51.518;-3.188;2024-02-15T13:58:49;13;13;
60816;PMS5003;51921;51.518;-3.188;2024-02-15T14:01:14;10;10;
60816;PMS5003;51921;51.518;-3.188;2024-02-15T14:03:40;14;13;
60816;PMS5003;51921;51.518;-3.188;2024-02-15T14:06:05;12;12;
60816;PMS5003;51921;51.518;-3.188;2024-02-15T14:08:30;13;12;
60816;PMS5003;51921;51.518;-3.188;2024-02-15T14:10:56;15;15;
60816;PMS5003;51921;51.518;-3.188;2024-02-15T14:13:21;14;13;
60816;PMS5003;51921;51.518;-3.188;2024-02-15T14:15:46;14;13;
60816;PMS5003;51921;51.518;-3.188;2024-02-15T14:18:12;12;11;
60816;PMS5003;51921;51.518;-3.188;2024-02-15T14:20:37;14;13;
60816;PMS5003;51921;51.518;-3.188;2024-02-15T14:23:02;12;11;
60816;PMS5003;51921;51.518;-3.188;2024-02-15T14:25:28;13;12;
60816;PMS5003;51921;51.518;-3.188;2024-02-15T14:27:53;12;12;
60816;PMS5003;51921;51.518;-3.188;2024-02-15T14:30:18;15;14;
60816;PMS5003;51921;51.518;-3.188;2024-02-15T14:32:45;19;16;
60816;PMS5003;51921;51.518;-3.188;2024-02-15T14:35:09;11;11;
60816;PMS5003;51921;51.518;-3.188;2024-02-15T14:37:34;16;12;
60816;PMS5003;51921;51.518;-3.188;2024-02-15T14:39:59;16;15;
60816;PMS5003;51921;51.518;-3.188;2024-02-15T14:42:24;12;11;
60816;PMS5003;51921;51.518;-3.188;2024-02-15T14:44:50;15;14;
60816;PMS5003;51921;51.518;-3.188;2024-02-15T14:49:40;16;15;
60816;PMS5003;51921;51.518;-3.188;2024-02-15T14:52:06;18;18;
60816;PMS5003;51921;51.518;-3.188;2024-02-15T14:54:31;20;20;
60816;PMS5003;51921;51.518;-3.188;2024-02-15T14:56:56;23;21;
60816;PMS5003;51921;51.518;-3.188;2024-02-15T14:59:21;20;19;
60816;PMS5003;51921;51.518;-3.188;2024-02-15T15:01:46;16;15;
60816;PMS5003;51921;51.518;-3.188;2024-02-15T15:04:11;15;14;
60816;PMS5003;51921;51.518;-3.188;2024-02-15T15:06:37;22;19;
60816;PMS5003;51921;51.518;-3.188;2024-02-15T15:09:02;33;29;
60816;PMS5003;51921;51.518;-3.188;2024-02-15T15:11:27;29;28;
60816;PMS5003;51921;51.518;-3.188;2024-02-15T15:13:53;29;27;
60816;PMS5003;51921;51.518;-3.188;2024-02-15T15:16:19;24;22;
60816;PMS5003;51921;51.518;-3.188;2024-02-15T15:18:46;26;25;
60816;PMS5003;51921;51.518;-3.188;2024-02-15T15:21:09;19;17;
60816;PMS5003;51921;51.518;-3.188;2024-02-15T15:23:35;17;17;
60816;PMS5003;51921;51.518;-3.188;2024-02-15T15:26:00;16;16;
60816;PMS5003;51921;51.518;-3.188;2024-02-15T15:28:26;22;21;
60816;PMS5003;51921;51.518;-3.188;2024-02-15T15:30:51;18;15;
60816;PMS5003;51921;51.518;-3.188;2024-02-15T15:33:16;18;16;
60816;PMS5003;51921;51.518;-3.188;2024-02-15T15:35:41;17;15;
60816;PMS5003;51921;51.518;-3.188;2024-02-15T15:38:07;14;14;
60816;PMS5003;51921;51.518;-3.188;2024-02-15T15:40:32;17;15;
60816;PMS5003;51921;51.518;-3.188;2024-02-15T15:42:57;15;15;
60816;PMS5003;51921;51.518;-3.188;2024-02-15T15:45:23;14;14;
60816;PMS5003;51921;51.518;-3.188;2024-02-15T15:47:48;17;14;
60816;PMS5003;51921;51.518;-3.188;2024-02-15T15:50:13;15;14;
60816;PMS5003;51921;51.518;-3.188;2024-02-15T15:52:39;15;15;
60816;PMS5003;51921;51.518;-3.188;2024-02-15T15:55:05;16;14;
60816;PMS5003;51921;51.518;-3.188;2024-02-15T15:57:30;15;15;
60816;PMS5003;51921;51.518;-3.188;2024-02-15T15:59:56;13;12;
60816;PMS5003;51921;51.518;-3.188;2024-02-15T16:02:21;14;13;
60816;PMS5003;51921;51.518;-3.188;2024-02-15T16:04:46;13;12;
60816;PMS5003;51921;51.518;-3.188;2024-02-15T16:07:11;13;12;
60816;PMS5003;51921;51.518;-3.188;2024-02-15T16:09:37;14;14;
60816;PMS5003;51921;51.518;-3.188;2024-02-15T16:12:02;13;13;
60816;PMS5003;51921;51.518;-3.188;2024-02-15T16:14:27;16;15;
60816;PMS5003;51921;51.518;-3.188;2024-02-15T16:16:53;16;16;
60816;PMS5003;51921;51.518;-3.188;2024-02-15T16:19:18;17;17;
60816;PMS5003;51921;51.518;-3.188;2024-02-15T16:21:43;20;15;
60816;PMS5003;51921;51.518;-3.188;2024-02-15T16:24:08;16;15;
60816;PMS5003;51921;51.518;-3.188;2024-02-15T16:26:34;17;15;
60816;PMS5003;51921;51.518;-3.188;2024-02-15T16:28:59;15;14;
60816;PMS5003;51921;51.518;-3.188;2024-02-15T16:31:24;14;13;
60816;PMS5003;51921;51.518;-3.188;2024-02-15T16:33:50;18;18;
60816;PMS5003;51921;51.518;-3.188;2024-02-15T16:36:15;18;17;
60816;PMS5003;51921;51.518;-3.188;2024-02-15T16:38:41;19;18;
60816;PMS5003;51921;51.518;-3.188;2024-02-15T16:41:06;15;15;
60816;PMS5003;51921;51.518;-3.188;2024-02-15T16:43:31;17;16;
60816;PMS5003;51921;51.518;-3.188;2024-02-15T16:45:57;15;15;
60816;PMS5003;51921;51.518;-3.188;2024-02-15T16:48:22;19;18;
60816;PMS5003;51921;51.518;-3.188;2024-02-15T16:50:48;18;18;
60816;PMS5003;51921;51.518;-3.188;2024-02-15T16:53:13;17;16;